createdAt,value
2018-06-01T00:02:44.645Z,9.70
2018-06-01T00:07:47.501Z,10.83
2018-06-01T00:12:50.555Z,9.80
2018-06-01T00:17:53.122Z,9.27
2018-06-01T00:22:56.018Z,8.07
2018-06-01T00:27:58.714Z,8.20
2018-06-01T00:33:02.178Z,8.40
2018-06-01T00:38:04.716Z,8.03
2018-06-01T00:43:07.327Z,8.10
2018-06-01T00:48:10.320Z,7.53
2018-06-01T00:53:13.484Z,6.63
2018-06-01T00:58:16.028Z,6.20
2018-06-01T01:03:20.153Z,7.70
2018-06-01T01:08:23.086Z,6.80
2018-06-01T01:13:25.792Z,6.43
2018-06-01T01:18:28.343Z,6.37
2018-06-01T01:23:31.876Z,6.30
2018-06-01T01:28:34.664Z,6.73
2018-06-01T01:33:37.693Z,6.50
2018-06-01T01:38:40.290Z,5.90
2018-06-01T01:43:43.003Z,5.73
2018-06-01T01:48:45.659Z,5.57
2018-06-01T01:53:48.357Z,5.33
2018-06-01T01:58:51.706Z,5.33
2018-06-01T02:03:54.305Z,5.67
2018-06-01T02:08:56.837Z,5.40
2018-06-01T02:13:59.457Z,6.00
2018-06-01T02:19:01.997Z,5.40
2018-06-01T02:24:04.628Z,5.87
2018-06-01T02:29:07.147Z,5.63
2018-06-01T02:34:09.700Z,6.10
2018-06-01T02:39:12.735Z,5.47
2018-06-01T02:44:15.305Z,5.77
2018-06-01T02:49:18.289Z,5.20
2018-06-01T02:54:21.756Z,5.30
2018-06-01T02:59:24.403Z,4.97
2018-06-01T03:04:26.936Z,5.10
2018-06-01T03:09:29.699Z,5.40
2018-06-01T03:14:33.173Z,4.67
2018-06-01T03:19:36.509Z,5.20
2018-06-01T03:24:39.038Z,5.20
2018-06-01T03:29:41.902Z,5.00
2018-06-01T03:34:44.482Z,5.67
2018-06-01T03:39:47.205Z,5.10
2018-06-01T03:44:49.742Z,5.00
2018-06-01T03:49:52.463Z,5.37
2018-06-01T03:54:55.874Z,4.53
2018-06-01T03:59:58.580Z,5.30
2018-06-01T04:05:02.068Z,5.37
2018-06-01T04:10:04.608Z,5.53
2018-06-01T04:15:07.118Z,5.50
2018-06-01T04:20:10.235Z,5.23
2018-06-01T04:25:13.688Z,5.73
2018-06-01T04:30:16.791Z,5.87
2018-06-01T04:35:20.339Z,5.40
2018-06-01T04:40:22.964Z,6.60
2018-06-01T04:45:25.507Z,5.10
2018-06-01T04:50:28.083Z,5.83
2018-06-01T04:55:31.457Z,5.57
2018-06-01T05:00:34.140Z,5.57
2018-06-01T05:05:36.737Z,6.20
2018-06-01T05:10:40.053Z,5.80
2018-06-01T05:15:42.629Z,5.93
2018-06-01T05:20:45.179Z,6.03
2018-06-01T05:25:47.804Z,6.50
2018-06-01T05:30:50.409Z,6.27
2018-06-01T05:35:53.022Z,5.47
2018-06-01T05:40:56.499Z,5.70
2018-06-01T05:45:59.054Z,6.07
2018-06-01T05:51:01.661Z,6.13
2018-06-01T05:56:04.270Z,6.10
2018-06-01T06:01:07.074Z,6.40
2018-06-01T06:06:09.707Z,6.17
2018-06-01T06:11:12.496Z,6.40
2018-06-01T06:16:15.060Z,6.20
2018-06-01T06:21:17.617Z,6.57
2018-06-01T06:26:20.191Z,6.10
2018-06-01T06:31:22.740Z,6.07
2018-06-01T06:36:25.361Z,6.63
2018-06-01T06:41:27.974Z,6.10
2018-06-01T06:46:30.576Z,6.80
2018-06-01T06:51:33.390Z,6.33
2018-06-01T06:56:36.265Z,6.00
2018-06-01T07:01:38.880Z,6.10
2018-06-01T07:06:42.522Z,6.13
2018-06-01T07:11:45.100Z,7.00
2018-06-01T07:16:48.670Z,7.20
2018-06-01T07:21:51.314Z,6.60
2018-06-01T07:26:54.169Z,8.07
2018-06-01T07:31:56.983Z,7.83
2018-06-01T07:36:59.548Z,7.80
2018-06-01T07:42:02.432Z,6.97
2018-06-01T07:47:05.051Z,6.60
2018-06-01T07:52:07.891Z,6.77
2018-06-01T07:57:10.499Z,6.77
2018-06-01T08:02:13.877Z,6.30
2018-06-01T08:07:16.426Z,5.93
2018-06-01T08:12:19.063Z,5.97
2018-06-01T08:17:21.588Z,6.07
2018-06-01T08:22:24.301Z,6.43
2018-06-01T08:27:27.021Z,6.80
2018-06-01T08:32:30.024Z,6.00
2018-06-01T08:37:32.719Z,5.80
2018-06-01T08:42:37.309Z,6.00
2018-06-01T08:47:41.930Z,5.80
2018-06-01T08:52:44.646Z,5.80
2018-06-01T08:57:47.275Z,5.67
2018-06-01T09:02:49.911Z,5.50
2018-06-01T09:07:52.705Z,5.90
2018-06-01T09:12:55.456Z,5.70
2018-06-01T09:17:58.025Z,6.23
2018-06-01T09:23:00.605Z,6.20
2018-06-01T09:28:03.372Z,6.43
2018-06-01T09:33:06.092Z,5.43
2018-06-01T09:38:12.821Z,6.00
2018-06-01T09:43:15.469Z,6.40
2018-06-01T09:48:18.841Z,6.23
2018-06-01T09:53:23.079Z,5.57
2018-06-01T09:58:26.197Z,6.43
2018-06-01T10:03:28.983Z,6.00
2018-06-01T10:08:31.731Z,5.23
2018-06-01T10:13:35.839Z,5.90
2018-06-01T10:18:38.560Z,5.07
2018-06-01T10:23:41.911Z,5.97
2018-06-01T10:28:44.990Z,5.80
2018-06-01T10:33:47.723Z,5.03
2018-06-01T10:38:51.030Z,5.23
2018-06-01T10:43:54.499Z,4.70
2018-06-01T10:48:58.440Z,5.37
2018-06-01T10:54:01.009Z,4.80
2018-06-01T10:59:04.557Z,5.07
2018-06-01T11:04:07.203Z,4.20
2018-06-01T11:09:10.047Z,5.23
2018-06-01T11:14:12.638Z,4.80
2018-06-01T11:19:15.208Z,4.20
2018-06-01T11:24:18.879Z,4.60
2018-06-01T11:29:22.470Z,4.20
2018-06-01T11:34:25.058Z,4.33
2018-06-01T11:39:27.640Z,3.70
2018-06-01T11:44:30.863Z,4.10
2018-06-01T11:49:33.408Z,4.30
2018-06-01T11:54:36.061Z,3.90
2018-06-01T11:59:39.134Z,4.50
2018-06-01T12:04:43.130Z,4.63
2018-06-01T12:09:45.707Z,3.70
2018-06-01T12:14:48.275Z,4.57
2018-06-01T12:19:51.305Z,4.53
2018-06-01T12:24:54.010Z,3.80
2018-06-01T12:29:56.970Z,4.30
2018-06-01T12:34:59.973Z,3.43
2018-06-01T12:40:02.581Z,4.07
2018-06-01T12:45:05.346Z,3.60
2018-06-01T12:50:07.941Z,4.40
2018-06-01T12:55:10.539Z,4.40
2018-06-01T13:00:13.067Z,4.10
2018-06-01T13:05:15.903Z,3.80
2018-06-01T13:10:18.669Z,4.23
2018-06-01T13:15:21.299Z,4.23
2018-06-01T13:20:23.912Z,3.57
2018-06-01T13:25:26.568Z,3.47
2018-06-01T13:30:29.989Z,3.93
2018-06-01T13:35:33.358Z,4.43
2018-06-01T13:40:36.445Z,3.90
2018-06-01T13:45:40.049Z,4.03
2018-06-01T13:50:42.761Z,3.50
2018-06-01T13:55:45.481Z,3.80
2018-06-01T14:00:48.509Z,3.53
2018-06-01T14:05:51.189Z,4.30
2018-06-01T14:10:53.787Z,4.00
2018-06-01T14:15:56.487Z,3.30
2018-06-01T14:20:59.387Z,3.70
2018-06-01T14:26:02.121Z,4.20
2018-06-01T14:31:05.692Z,4.10
2018-06-01T14:36:08.357Z,3.60
2018-06-01T14:41:11.040Z,4.13
2018-06-01T14:46:13.857Z,3.70
2018-06-01T14:51:16.846Z,4.20
2018-06-01T14:56:20.285Z,3.90
2018-06-01T15:01:22.890Z,3.50
2018-06-01T15:06:25.683Z,3.97
2018-06-01T15:11:28.669Z,3.90
2018-06-01T15:16:33.024Z,3.60
2018-06-01T15:21:35.710Z,3.47
2018-06-01T15:26:38.533Z,4.37
2018-06-01T15:31:41.280Z,4.47
2018-06-01T15:36:44.117Z,4.17
2018-06-01T15:41:47.114Z,4.30
2018-06-01T15:46:49.756Z,4.83
2018-06-01T15:51:52.408Z,3.83
2018-06-01T15:56:55.924Z,5.47
2018-06-01T16:01:59.456Z,4.93
2018-06-01T16:07:02.040Z,4.40
2018-06-01T16:12:04.804Z,7.00
2018-06-01T16:17:07.407Z,7.60
2018-06-01T16:22:11.699Z,13.03
2018-06-01T16:27:14.467Z,9.87
2018-06-01T16:32:17.255Z,8.30
2018-06-01T16:37:20.732Z,8.30
2018-06-01T16:42:23.783Z,7.87
2018-06-01T16:47:26.874Z,7.53
2018-06-01T16:52:29.511Z,8.60
2018-06-01T16:57:32.127Z,9.60
2018-06-01T17:02:34.820Z,8.97
2018-06-01T17:07:37.636Z,8.53
2018-06-01T17:12:40.293Z,7.87
2018-06-01T17:17:43.587Z,7.50
2018-06-01T17:22:46.273Z,8.03
2018-06-01T17:27:48.931Z,7.50
2018-06-01T17:32:51.503Z,7.47
2018-06-01T17:37:54.098Z,6.30
2018-06-01T17:42:56.664Z,6.97
2018-06-01T17:47:59.585Z,6.60
2018-06-01T17:53:02.980Z,6.33
2018-06-01T17:58:06.997Z,6.70
2018-06-01T18:03:09.873Z,5.90
2018-06-01T18:08:12.497Z,6.10
2018-06-01T18:13:15.411Z,5.63
2018-06-01T18:18:18.092Z,5.67
2018-06-01T18:23:20.665Z,6.33
2018-06-01T18:28:23.326Z,4.90
2018-06-01T18:33:27.199Z,5.20
2018-06-01T18:38:29.774Z,5.47
2018-06-01T18:43:32.361Z,5.60
2018-06-01T18:48:34.910Z,4.60
2018-06-01T18:53:37.515Z,5.50
2018-06-01T18:58:40.678Z,4.93
2018-06-01T19:03:43.432Z,5.50
2018-06-01T19:08:47.015Z,4.90
2018-06-01T19:13:49.571Z,5.60
2018-06-01T19:18:52.287Z,5.00
2018-06-01T19:23:54.962Z,5.00
2018-06-01T19:28:57.612Z,6.60
2018-06-01T19:34:00.204Z,9.00
2018-06-01T19:39:02.778Z,9.67
2018-06-01T19:44:05.315Z,11.07
2018-06-01T19:49:07.963Z,16.87
2018-06-01T19:54:10.669Z,15.40
2018-06-01T19:59:13.216Z,13.87
2018-06-01T20:04:15.804Z,13.40
2018-06-01T20:09:18.429Z,13.10
2018-06-01T20:14:21.109Z,12.40
2018-06-01T20:19:23.826Z,13.03
2018-06-01T20:24:27.013Z,11.90
2018-06-01T20:29:29.763Z,13.50
2018-06-01T20:34:32.519Z,15.50
2018-06-01T20:39:35.088Z,12.80
2018-06-01T20:44:37.811Z,12.60
2018-06-01T20:49:41.452Z,12.57
2018-06-01T20:54:44.008Z,12.97
2018-06-01T20:59:46.694Z,12.90
2018-06-01T21:04:50.227Z,14.10
2018-06-01T21:09:53.005Z,13.13
2018-06-01T21:14:55.699Z,12.57
2018-06-01T21:19:58.663Z,12.50
2018-06-01T21:25:01.945Z,12.53
2018-06-01T21:30:04.547Z,12.47
2018-06-01T21:35:08.006Z,12.77
2018-06-01T21:40:10.877Z,12.90
2018-06-01T21:45:14.055Z,12.20
2018-06-01T21:50:17.387Z,11.50
2018-06-01T21:55:20.020Z,13.00
2018-06-01T22:00:22.576Z,13.23
2018-06-01T22:05:25.990Z,13.60
2018-06-01T22:10:28.584Z,15.70
2018-06-01T22:15:32.000Z,21.10
2018-06-01T22:20:35.476Z,20.73
2018-06-01T22:25:38.010Z,18.57
2018-06-01T22:30:40.701Z,16.73
2018-06-01T22:35:43.423Z,17.13
2018-06-01T22:40:45.989Z,17.97
2018-06-01T22:45:49.126Z,22.60
2018-06-01T22:50:51.708Z,21.10
2018-06-01T22:55:54.279Z,20.27
2018-06-01T23:00:56.954Z,15.80
2018-06-01T23:05:59.562Z,18.53
2018-06-01T23:11:02.116Z,20.27
2018-06-01T23:16:05.293Z,24.73
2018-06-01T23:21:08.014Z,23.20
2018-06-01T23:26:10.552Z,20.67
2018-06-01T23:31:13.413Z,19.15
2018-06-01T23:36:16.060Z,20.50
2018-06-01T23:41:18.818Z,19.30
2018-06-01T23:46:21.501Z,18.60
2018-06-01T23:51:24.165Z,14.67
2018-06-01T23:56:26.693Z,17.47
